createdAt,value
2018-09-23T00:00:36.038Z,14.80
2018-09-23T00:03:04.649Z,14.80
2018-09-23T00:05:33.336Z,14.80
2018-09-23T00:08:01.981Z,14.90
2018-09-23T00:10:30.651Z,14.90
2018-09-23T00:12:59.311Z,14.80
2018-09-23T00:15:27.972Z,14.80
2018-09-23T00:17:56.825Z,14.80
2018-09-23T00:20:25.377Z,14.80
2018-09-23T00:22:54.004Z,14.80
2018-09-23T00:25:22.723Z,14.90
2018-09-23T00:27:51.396Z,14.90
2018-09-23T00:30:20.110Z,14.80
2018-09-23T00:32:48.729Z,14.70
2018-09-23T00:35:17.417Z,14.50
2018-09-23T00:37:46.073Z,14.50
2018-09-23T00:40:14.653Z,14.40
2018-09-23T00:42:43.218Z,14.40
2018-09-23T00:45:12.867Z,14.40
2018-09-23T00:47:41.488Z,14.40
2018-09-23T00:50:10.130Z,14.40
2018-09-23T00:52:38.665Z,14.40
2018-09-23T00:55:07.323Z,14.30
2018-09-23T00:57:35.943Z,14.20
2018-09-23T01:00:05.487Z,14.20
2018-09-23T01:02:34.112Z,14.10
2018-09-23T01:05:02.745Z,14.20
2018-09-23T01:07:31.377Z,14.20
2018-09-23T01:10:00.035Z,14.20
2018-09-23T01:12:28.646Z,14.10
2018-09-23T01:14:57.226Z,14.10
2018-09-23T01:17:25.882Z,14.00
2018-09-23T01:19:54.578Z,14.00
2018-09-23T01:22:23.277Z,14.00
2018-09-23T01:24:52.941Z,13.90
2018-09-23T01:27:21.529Z,13.80
2018-09-23T01:29:50.124Z,13.80
2018-09-23T01:32:18.778Z,13.70
2018-09-23T01:34:47.341Z,13.70
2018-09-23T01:37:15.937Z,13.70
2018-09-23T01:39:44.547Z,13.70
2018-09-23T01:42:13.106Z,13.60
2018-09-23T01:44:41.722Z,13.50
2018-09-23T01:47:10.292Z,13.60
2018-09-23T01:49:39.010Z,13.60
2018-09-23T01:52:08.711Z,13.50
2018-09-23T01:54:37.684Z,13.40
2018-09-23T01:57:06.407Z,13.50
2018-09-23T01:59:34.990Z,13.50
2018-09-23T02:02:03.694Z,13.50
2018-09-23T02:04:32.359Z,13.60
2018-09-23T02:07:01.013Z,13.60
2018-09-23T02:09:29.722Z,13.60
2018-09-23T02:11:58.344Z,13.60
2018-09-23T02:14:27.023Z,13.70
2018-09-23T02:16:55.612Z,13.70
2018-09-23T02:19:24.237Z,13.60
2018-09-23T02:21:52.851Z,13.60
2018-09-23T02:24:21.495Z,13.70
2018-09-23T02:26:50.161Z,13.70
2018-09-23T02:29:18.775Z,13.70
2018-09-23T02:31:47.422Z,13.70
2018-09-23T02:34:16.042Z,13.70
2018-09-23T02:36:44.621Z,13.70
2018-09-23T02:39:13.329Z,13.70
2018-09-23T02:41:42.009Z,13.70
2018-09-23T02:44:10.618Z,13.70
2018-09-23T02:46:39.337Z,13.70
2018-09-23T02:49:08.002Z,13.70
2018-09-23T02:51:36.647Z,13.70
2018-09-23T02:54:05.200Z,13.70
2018-09-23T02:56:33.846Z,13.60
2018-09-23T02:59:02.463Z,13.60
2018-09-23T03:01:31.125Z,13.60
2018-09-23T03:03:59.833Z,13.50
2018-09-23T03:06:28.489Z,13.60
2018-09-23T03:08:58.301Z,13.60
2018-09-23T03:11:26.978Z,13.50
2018-09-23T03:13:55.603Z,13.60
2018-09-23T03:16:24.306Z,13.60
2018-09-23T03:18:52.932Z,13.60
2018-09-23T03:21:21.592Z,13.70
2018-09-23T03:23:50.331Z,13.60
2018-09-23T03:26:19.057Z,13.70
2018-09-23T03:28:47.640Z,13.80
2018-09-23T03:31:16.274Z,13.80
2018-09-23T03:33:44.905Z,13.90
2018-09-23T03:36:13.483Z,13.90
2018-09-23T03:38:42.103Z,13.90
2018-09-23T03:41:10.683Z,14.00
2018-09-23T03:43:39.289Z,13.90
2018-09-23T03:46:08.992Z,13.90
2018-09-23T03:48:37.654Z,13.90
2018-09-23T03:51:06.389Z,13.80
2018-09-23T03:53:34.928Z,13.90
2018-09-23T03:56:03.552Z,13.90
2018-09-23T03:58:32.200Z,13.90
2018-09-23T04:01:00.878Z,14.00
2018-09-23T04:03:29.573Z,14.00
2018-09-23T04:05:58.316Z,14.00
2018-09-23T04:08:26.972Z,14.10
2018-09-23T04:10:55.672Z,14.20
2018-09-23T04:13:24.396Z,14.10
2018-09-23T04:15:53.074Z,14.20
2018-09-23T04:18:21.689Z,14.20
2018-09-23T04:20:50.365Z,14.30
2018-09-23T04:23:19.018Z,14.30
2018-09-23T04:25:47.687Z,14.20
2018-09-23T04:28:16.287Z,14.20
2018-09-23T04:30:44.889Z,14.40
2018-09-23T04:33:13.615Z,14.50
2018-09-23T04:35:42.279Z,14.50
2018-09-23T04:38:10.936Z,14.40
2018-09-23T04:40:39.569Z,14.50
2018-09-23T04:43:08.264Z,14.50
2018-09-23T04:45:36.882Z,14.50
2018-09-23T04:48:05.562Z,14.50
2018-09-23T04:50:34.118Z,14.60
2018-09-23T04:53:02.760Z,14.60
2018-09-23T04:55:31.302Z,14.60
2018-09-23T04:58:01.995Z,14.70
2018-09-23T05:00:30.687Z,14.70
2018-09-23T05:02:59.270Z,14.70
2018-09-23T05:05:27.891Z,14.60
2018-09-23T05:07:56.537Z,14.50
2018-09-23T05:10:25.287Z,14.50
2018-09-23T05:12:54.968Z,14.50
2018-09-23T05:15:23.563Z,14.50
2018-09-23T05:17:52.234Z,14.60
2018-09-23T05:20:20.793Z,14.70
2018-09-23T05:22:49.412Z,14.80
2018-09-23T05:25:17.967Z,14.90
2018-09-23T05:27:46.621Z,14.90
2018-09-23T05:30:15.157Z,14.90
2018-09-23T05:32:43.754Z,15.00
2018-09-23T05:35:12.381Z,15.00
2018-09-23T05:37:40.925Z,15.00
2018-09-23T05:40:09.521Z,15.10
2018-09-23T05:42:38.171Z,15.20
2018-09-23T05:45:12.826Z,15.30
2018-09-23T05:47:41.455Z,15.30
2018-09-23T05:50:10.087Z,15.30
2018-09-23T05:52:42.023Z,15.30
2018-09-23T05:55:10.649Z,15.30
2018-09-23T05:57:39.215Z,15.40
2018-09-23T06:00:11.305Z,15.40
2018-09-23T06:02:39.893Z,15.40
2018-09-23T06:05:08.452Z,15.30
2018-09-23T06:07:37.116Z,15.30
2018-09-23T06:10:05.754Z,15.40
2018-09-23T06:12:34.337Z,15.50
2018-09-23T06:15:03.123Z,15.50
2018-09-23T06:17:31.731Z,15.50
2018-09-23T06:20:00.375Z,15.60
2018-09-23T06:22:28.990Z,15.60
2018-09-23T06:24:57.510Z,15.70
2018-09-23T06:27:26.217Z,15.80
2018-09-23T06:29:54.833Z,15.90
2018-09-23T06:32:24.408Z,16.00
2018-09-23T06:34:52.956Z,16.10
2018-09-23T06:37:21.580Z,16.10
2018-09-23T06:39:50.178Z,16.10
2018-09-23T06:42:19.838Z,16.10
2018-09-23T06:44:48.432Z,16.20
2018-09-23T06:47:17.097Z,16.30
2018-09-23T06:49:45.811Z,16.40
2018-09-23T06:52:14.501Z,16.50
2018-09-23T06:54:53.629Z,16.70
2018-09-23T06:57:23.296Z,16.70
2018-09-23T06:59:52.153Z,16.80
2018-09-23T07:02:25.000Z,16.90
2018-09-23T07:04:53.640Z,17.10
2018-09-23T07:07:22.270Z,17.30
2018-09-23T07:09:51.949Z,17.30
2018-09-23T07:12:21.673Z,17.50
2018-09-23T07:14:50.245Z,17.60
2018-09-23T07:17:18.894Z,17.70
2018-09-23T07:19:52.734Z,17.80
2018-09-23T07:22:21.299Z,17.90
2018-09-23T07:24:53.438Z,18.00
2018-09-23T07:27:27.434Z,18.20
2018-09-23T07:29:56.063Z,18.30
2018-09-23T07:32:24.646Z,18.60
2018-09-23T07:34:53.373Z,18.80
2018-09-23T07:37:22.007Z,19.00
2018-09-23T07:39:50.724Z,19.10
2018-09-23T07:42:19.269Z,19.30
2018-09-23T07:44:47.876Z,19.50
2018-09-23T07:47:16.504Z,19.80
2018-09-23T07:49:45.186Z,20.00
2018-09-23T07:52:14.925Z,20.40
2018-09-23T07:54:43.598Z,20.40
2018-09-23T07:57:12.245Z,20.70
2018-09-23T07:59:40.926Z,20.90
2018-09-23T08:02:09.555Z,20.80
2018-09-23T08:04:38.245Z,20.80
2018-09-23T08:07:07.025Z,20.80
2018-09-23T08:09:35.658Z,20.70
2018-09-23T08:12:04.526Z,20.60
2018-09-23T08:14:33.685Z,20.60
2018-09-23T08:17:02.014Z,20.60
2018-09-23T08:19:30.771Z,20.50
2018-09-23T08:22:00.546Z,20.50
2018-09-23T08:24:29.316Z,20.50
2018-09-23T08:26:58.067Z,20.50
2018-09-23T08:29:26.874Z,20.60
2018-09-23T08:31:55.602Z,20.60
2018-09-23T08:34:24.433Z,20.60
2018-09-23T08:36:53.143Z,20.70
2018-09-23T08:39:21.899Z,20.60
2018-09-23T08:41:51.691Z,20.80
2018-09-23T08:44:20.451Z,20.80
2018-09-23T08:46:49.268Z,20.90
2018-09-23T08:49:17.991Z,20.90
2018-09-23T08:51:46.824Z,20.80
2018-09-23T08:54:15.499Z,20.90
2018-09-23T08:56:44.204Z,20.90
2018-09-23T08:59:12.988Z,21.00
2018-09-23T09:01:41.781Z,20.90
2018-09-23T09:04:10.566Z,20.70
2018-09-23T09:06:41.383Z,20.50
2018-09-23T09:09:10.129Z,20.40
2018-09-23T09:11:38.891Z,20.50
2018-09-23T09:14:07.619Z,20.50
2018-09-23T09:16:36.532Z,20.50
2018-09-23T09:19:07.318Z,20.70
2018-09-23T09:21:36.038Z,20.70
2018-09-23T09:24:04.790Z,20.90
2018-09-23T09:26:33.532Z,21.10
2018-09-23T09:29:02.200Z,21.40
2018-09-23T09:31:32.047Z,21.60
2018-09-23T09:34:00.823Z,21.90
2018-09-23T09:36:29.487Z,22.30
2018-09-23T09:38:59.249Z,22.70
2018-09-23T09:41:28.208Z,23.10
2018-09-23T09:43:57.244Z,23.30
2018-09-23T09:46:26.058Z,23.40
2018-09-23T09:48:54.740Z,23.40
2018-09-23T09:51:23.595Z,23.40
2018-09-23T09:53:52.925Z,23.50
2018-09-23T09:56:21.577Z,23.50
2018-09-23T09:58:51.397Z,23.40
2018-09-23T10:01:20.216Z,23.40
2018-09-23T10:03:49.008Z,23.30
2018-09-23T10:06:19.160Z,23.40
2018-09-23T10:08:48.101Z,23.40
2018-09-23T10:11:16.717Z,23.40
2018-09-23T10:13:46.335Z,23.60
2018-09-23T10:16:14.993Z,23.60
2018-09-23T10:18:43.630Z,23.70
2018-09-23T10:21:12.276Z,23.70
2018-09-23T10:23:41.254Z,23.90
2018-09-23T10:26:09.852Z,24.00
2018-09-23T10:28:38.602Z,24.10
2018-09-23T10:31:07.464Z,24.10
2018-09-23T10:33:36.184Z,24.10
2018-09-23T10:36:05.049Z,24.10
2018-09-23T10:38:33.736Z,24.00
2018-09-23T10:41:02.459Z,24.00
2018-09-23T10:43:31.275Z,24.00
2018-09-23T10:45:59.960Z,24.00
2018-09-23T10:48:28.630Z,24.00
2018-09-23T10:50:57.357Z,24.10
2018-09-23T10:53:25.972Z,24.30
2018-09-23T10:55:54.630Z,24.30
2018-09-23T10:58:24.513Z,24.40
2018-09-23T11:00:54.321Z,24.40
2018-09-23T11:03:23.064Z,24.40
2018-09-23T11:05:51.745Z,24.60
2018-09-23T11:08:20.321Z,24.80
2018-09-23T11:10:51.082Z,24.90
2018-09-23T11:13:19.727Z,25.00
2018-09-23T11:15:48.393Z,25.10
2018-09-23T11:18:17.020Z,25.30
2018-09-23T11:20:47.781Z,25.30
2018-09-23T11:23:16.505Z,25.50
2018-09-23T11:25:45.082Z,25.70
2018-09-23T11:28:13.831Z,25.80
2018-09-23T11:30:42.593Z,25.80
2018-09-23T11:33:11.122Z,25.70
2018-09-23T11:35:39.690Z,25.70
2018-09-23T11:38:08.358Z,25.80
2018-09-23T11:40:36.949Z,25.80
2018-09-23T11:43:05.534Z,25.80
2018-09-23T11:45:34.197Z,25.70
2018-09-23T11:48:02.902Z,25.60
2018-09-23T11:50:32.603Z,25.70
2018-09-23T11:53:01.330Z,26.00
2018-09-23T11:55:30.138Z,26.00
2018-09-23T11:57:58.681Z,26.00
2018-09-23T12:00:27.374Z,26.00
2018-09-23T12:02:56.069Z,25.90
2018-09-23T12:05:25.799Z,25.80
2018-09-23T12:07:54.515Z,25.80
2018-09-23T12:10:23.397Z,25.80
2018-09-23T12:12:52.069Z,25.60
2018-09-23T12:15:20.756Z,25.50
2018-09-23T12:17:49.479Z,25.50
2018-09-23T12:20:18.172Z,25.70
2018-09-23T12:22:51.807Z,25.60
2018-09-23T12:25:21.491Z,25.30
2018-09-23T12:27:51.201Z,25.10
2018-09-23T12:30:19.876Z,25.10
2018-09-23T12:32:49.603Z,25.30
2018-09-23T12:35:18.264Z,25.50
2018-09-23T12:37:46.925Z,25.50
2018-09-23T12:40:16.581Z,25.30
2018-09-23T12:42:46.263Z,25.50
2018-09-23T12:45:14.899Z,25.50
2018-09-23T12:47:47.869Z,25.50
2018-09-23T12:50:16.541Z,25.50
2018-09-23T12:52:45.236Z,25.50
2018-09-23T12:55:13.838Z,25.70
2018-09-23T12:57:42.440Z,25.60
2018-09-23T13:00:11.127Z,25.70
2018-09-23T13:02:39.785Z,25.90
2018-09-23T13:05:09.529Z,26.10
2018-09-23T13:07:38.104Z,26.30
2018-09-23T13:10:06.831Z,26.30
2018-09-23T13:12:35.430Z,26.30
2018-09-23T13:15:04.135Z,26.30
2018-09-23T13:17:32.741Z,26.60
2018-09-23T13:20:01.310Z,26.60
2018-09-23T13:22:29.877Z,26.70
2018-09-23T13:24:58.557Z,26.70
2018-09-23T13:27:27.186Z,27.00
2018-09-23T13:29:55.829Z,27.10
2018-09-23T13:32:24.485Z,27.20
2018-09-23T13:34:53.130Z,27.40
2018-09-23T13:37:22.781Z,27.30
2018-09-23T13:39:51.367Z,27.30
2018-09-23T13:42:23.299Z,27.70
2018-09-23T13:44:51.915Z,27.60
2018-09-23T13:47:20.541Z,27.30
2018-09-23T13:49:49.127Z,27.20
2018-09-23T13:52:17.747Z,27.10
2018-09-23T13:54:46.552Z,27.20
2018-09-23T13:57:15.242Z,27.40
2018-09-23T13:59:43.837Z,27.50
2018-09-23T14:02:13.675Z,27.80
2018-09-23T14:04:42.307Z,27.80
2018-09-23T14:07:10.980Z,27.70
2018-09-23T14:09:39.719Z,27.60
2018-09-23T14:12:08.454Z,27.30
2018-09-23T14:14:37.186Z,27.00
2018-09-23T14:17:05.973Z,26.70
2018-09-23T14:19:34.742Z,26.50
2018-09-23T14:22:03.449Z,26.40
2018-09-23T14:24:32.133Z,26.30
2018-09-23T14:27:00.838Z,26.20
2018-09-23T14:29:29.512Z,26.30
2018-09-23T14:31:58.181Z,26.30
2018-09-23T14:34:26.854Z,26.30
2018-09-23T14:36:55.636Z,26.30
2018-09-23T14:39:24.309Z,26.30
2018-09-23T14:41:53.100Z,26.50
2018-09-23T14:44:21.723Z,26.50
2018-09-23T14:46:50.386Z,26.60
2018-09-23T14:49:19.286Z,26.70
2018-09-23T14:51:47.954Z,26.70
2018-09-23T14:54:16.747Z,26.60
2018-09-23T14:56:45.514Z,26.70
2018-09-23T14:59:14.115Z,26.70
2018-09-23T15:01:42.781Z,26.70
2018-09-23T15:04:11.410Z,26.60
2018-09-23T15:06:40.083Z,26.50
2018-09-23T15:09:10.302Z,26.50
2018-09-23T15:11:39.123Z,26.30
2018-09-23T15:14:08.145Z,26.30
2018-09-23T15:16:36.797Z,26.30
2018-09-23T15:19:05.401Z,26.30
2018-09-23T15:21:35.218Z,26.30
2018-09-23T15:24:03.906Z,26.30
2018-09-23T15:26:32.495Z,26.20
2018-09-23T15:29:01.137Z,26.20
2018-09-23T15:31:29.781Z,26.20
2018-09-23T15:33:58.455Z,26.00
2018-09-23T15:36:27.198Z,26.00
2018-09-23T15:38:55.854Z,25.90
2018-09-23T15:41:24.696Z,25.90
2018-09-23T15:43:53.488Z,25.90
2018-09-23T15:46:22.084Z,25.90
2018-09-23T15:48:50.721Z,26.00
2018-09-23T15:51:19.338Z,26.10
2018-09-23T15:53:48.000Z,25.90
2018-09-23T15:56:16.671Z,25.90
2018-09-23T15:58:46.348Z,26.00
2018-09-23T16:01:14.954Z,25.90
2018-09-23T16:03:43.590Z,25.80
2018-09-23T16:06:12.245Z,25.80
2018-09-23T16:08:40.936Z,25.70
2018-09-23T16:11:09.526Z,25.60
2018-09-23T16:13:39.252Z,25.50
2018-09-23T16:16:08.241Z,25.50
2018-09-23T16:18:36.991Z,25.50
2018-09-23T16:21:05.884Z,25.50
2018-09-23T16:23:34.473Z,25.40
2018-09-23T16:26:03.146Z,25.30
2018-09-23T16:28:31.803Z,25.20
2018-09-23T16:31:00.402Z,25.00
2018-09-23T16:33:29.005Z,25.00
2018-09-23T16:35:57.736Z,24.90
2018-09-23T16:38:26.423Z,24.80
2018-09-23T16:40:54.986Z,24.80
2018-09-23T16:43:24.732Z,24.80
2018-09-23T16:45:53.390Z,24.70
2018-09-23T16:48:22.233Z,24.70
2018-09-23T16:50:50.963Z,24.50
2018-09-23T16:53:19.714Z,23.90
2018-09-23T16:55:48.418Z,23.10
2018-09-23T16:58:17.256Z,22.30
2018-09-23T17:00:46.199Z,21.70
2018-09-23T17:03:14.822Z,20.50
2018-09-23T17:05:43.487Z,19.00
2018-09-23T17:08:12.511Z,17.70
2018-09-23T17:10:41.141Z,17.10
2018-09-23T17:13:09.787Z,16.70
2018-09-23T17:15:38.461Z,16.60
2018-09-23T17:18:07.655Z,16.60
2018-09-23T17:20:37.252Z,16.60
2018-09-23T17:23:05.972Z,16.70
2018-09-23T17:25:34.955Z,16.70
2018-09-23T17:28:03.618Z,16.70
2018-09-23T17:30:32.289Z,16.70
2018-09-23T17:33:00.938Z,16.70
2018-09-23T17:35:29.691Z,16.60
2018-09-23T17:37:58.319Z,16.50
2018-09-23T17:40:27.064Z,16.40
2018-09-23T17:42:55.638Z,16.40
2018-09-23T17:45:24.283Z,16.30
2018-09-23T17:47:52.825Z,16.20
2018-09-23T17:50:21.419Z,16.20
2018-09-23T17:52:50.037Z,16.20
2018-09-23T17:55:18.673Z,16.10
2018-09-23T17:57:47.337Z,16.10
2018-09-23T18:00:15.945Z,16.10
2018-09-23T18:02:48.569Z,16.10
2018-09-23T18:05:17.292Z,16.10
2018-09-23T18:07:45.960Z,16.00
2018-09-23T18:10:14.484Z,16.10
2018-09-23T18:12:43.021Z,16.10
2018-09-23T18:15:11.613Z,16.10
2018-09-23T18:17:40.293Z,16.10
2018-09-23T18:20:08.946Z,16.00
2018-09-23T18:22:37.525Z,16.00
2018-09-23T18:25:06.261Z,16.00
2018-09-23T18:27:34.954Z,16.00
2018-09-23T18:30:03.660Z,16.00
2018-09-23T18:32:32.247Z,16.10
2018-09-23T18:35:00.866Z,16.10
2018-09-23T18:37:29.605Z,16.10
2018-09-23T18:39:58.190Z,16.10
2018-09-23T18:42:26.831Z,16.10
2018-09-23T18:44:55.500Z,16.20
2018-09-23T18:47:24.074Z,16.10
2018-09-23T18:50:07.529Z,15.90
2018-09-23T18:52:36.078Z,15.30
2018-09-23T18:55:10.227Z,14.70
2018-09-23T18:57:38.777Z,14.40
2018-09-23T19:00:07.464Z,14.10
2018-09-23T19:02:36.214Z,13.90
2018-09-23T19:05:04.970Z,13.80
2018-09-23T19:07:33.491Z,13.70
2018-09-23T19:10:02.965Z,13.60
2018-09-23T19:12:31.493Z,13.40
2018-09-23T19:15:00.099Z,13.30
2018-09-23T19:17:28.656Z,13.30
2018-09-23T19:20:02.406Z,13.20
2018-09-23T19:22:36.273Z,13.20
2018-09-23T19:25:04.935Z,13.20
2018-09-23T19:27:33.591Z,13.20
2018-09-23T19:30:03.379Z,13.10
2018-09-23T19:32:32.000Z,13.10
2018-09-23T19:35:00.659Z,13.10
2018-09-23T19:37:29.271Z,13.10
2018-09-23T19:39:57.822Z,13.10
2018-09-23T19:42:26.413Z,13.10
2018-09-23T19:44:55.209Z,13.00
2018-09-23T19:47:23.822Z,13.00
2018-09-23T19:49:52.409Z,13.00
2018-09-23T19:52:21.067Z,12.90
2018-09-23T19:54:49.646Z,12.90
2018-09-23T19:57:18.287Z,12.80
2018-09-23T19:59:47.933Z,12.70
2018-09-23T20:02:16.691Z,12.70
2018-09-23T20:04:45.260Z,12.70
2018-09-23T20:07:13.878Z,12.70
2018-09-23T20:09:42.553Z,12.80
2018-09-23T20:12:11.165Z,12.70
2018-09-23T20:14:39.821Z,12.70
2018-09-23T20:17:08.493Z,12.60
2018-09-23T20:19:37.019Z,12.60
2018-09-23T20:22:07.526Z,12.60
2018-09-23T20:24:36.212Z,12.60
2018-09-23T20:27:04.841Z,12.70
2018-09-23T20:29:33.497Z,12.70
2018-09-23T20:32:02.620Z,12.70
2018-09-23T20:34:31.297Z,12.60
2018-09-23T20:36:59.883Z,12.60
2018-09-23T20:39:28.495Z,12.60
2018-09-23T20:41:57.152Z,12.60
2018-09-23T20:44:25.697Z,12.60
2018-09-23T20:46:54.318Z,12.60
2018-09-23T20:49:22.856Z,12.60
2018-09-23T20:51:51.518Z,12.60
2018-09-23T20:54:20.197Z,12.60
2018-09-23T20:56:48.894Z,12.60
2018-09-23T20:59:17.541Z,12.50
2018-09-23T21:01:46.240Z,12.50
2018-09-23T21:04:14.770Z,12.40
2018-09-23T21:06:43.307Z,12.40
2018-09-23T21:09:12.057Z,12.40
2018-09-23T21:11:40.812Z,12.40
2018-09-23T21:14:09.491Z,12.40
2018-09-23T21:16:38.070Z,12.40
2018-09-23T21:19:06.673Z,12.30
2018-09-23T21:21:35.307Z,12.30
2018-09-23T21:24:03.843Z,12.30
2018-09-23T21:26:32.504Z,12.30
2018-09-23T21:29:01.152Z,12.30
2018-09-23T21:31:29.800Z,12.30
2018-09-23T21:33:58.381Z,12.40
2018-09-23T21:36:26.947Z,12.40
2018-09-23T21:38:55.525Z,12.40
2018-09-23T21:41:24.097Z,12.50
2018-09-23T21:43:52.725Z,12.40
2018-09-23T21:46:21.317Z,12.40
2018-09-23T21:48:49.927Z,12.30
2018-09-23T21:51:18.499Z,12.20
2018-09-23T21:53:47.152Z,12.20
2018-09-23T21:56:15.739Z,12.20
2018-09-23T21:58:44.371Z,12.20
2018-09-23T22:01:12.979Z,12.10
2018-09-23T22:03:41.654Z,12.10
2018-09-23T22:06:10.261Z,12.00
2018-09-23T22:08:38.923Z,12.00
2018-09-23T22:11:07.520Z,12.00
2018-09-23T22:13:36.146Z,12.00
2018-09-23T22:16:04.752Z,12.00
2018-09-23T22:18:33.516Z,12.00
2018-09-23T22:21:02.027Z,12.10
2018-09-23T22:23:30.634Z,12.10
2018-09-23T22:25:59.206Z,12.10
2018-09-23T22:28:27.861Z,12.10
2018-09-23T22:30:56.439Z,12.10
2018-09-23T22:33:25.017Z,12.10
2018-09-23T22:35:53.556Z,12.00
2018-09-23T22:38:22.102Z,12.00
2018-09-23T22:40:50.689Z,12.00
2018-09-23T22:43:19.301Z,12.00
2018-09-23T22:45:47.893Z,12.10
2018-09-23T22:48:16.505Z,12.10
2018-09-23T22:50:45.062Z,12.10
2018-09-23T22:53:13.708Z,12.00
2018-09-23T22:55:42.434Z,12.00
2018-09-23T22:58:11.041Z,12.00
2018-09-23T23:00:39.653Z,12.00
2018-09-23T23:03:08.308Z,12.00
2018-09-23T23:05:36.873Z,12.10
2018-09-23T23:08:05.452Z,12.10
2018-09-23T23:10:34.045Z,12.10
2018-09-23T23:13:02.664Z,12.10
2018-09-23T23:15:31.261Z,12.10
2018-09-23T23:17:59.880Z,12.00
2018-09-23T23:20:28.483Z,12.00
2018-09-23T23:22:57.026Z,12.10
2018-09-23T23:25:25.653Z,12.10
2018-09-23T23:27:54.252Z,12.10
2018-09-23T23:30:22.834Z,12.00
2018-09-23T23:32:51.461Z,12.00
2018-09-23T23:35:20.085Z,11.90
2018-09-23T23:37:48.966Z,11.90
2018-09-23T23:40:17.593Z,11.80
2018-09-23T23:42:46.191Z,11.80
2018-09-23T23:45:14.866Z,11.70
2018-09-23T23:47:43.420Z,11.70
2018-09-23T23:50:12.015Z,11.70
2018-09-23T23:52:40.553Z,11.70
2018-09-23T23:55:09.157Z,11.70
2018-09-23T23:57:37.732Z,11.70
